sensor_id;sensor_type;location;lat;lon;timestamp;pressure;altitude;pressure_sealevel;temperature;humidity
11395;BME280;5753;54.402;10.220;2023-03-16T00:00:16;101996.59;;;9.00;54.52
11395;BME280;5753;54.402;10.220;2023-03-16T00:02:42;101994.81;;;10.83;50.12
11395;BME280;5753;54.402;10.220;2023-03-16T00:05:10;101998.03;;;11.01;50.07
11395;BME280;5753;54.402;10.220;2023-03-16T00:07:38;101993.09;;;10.56;50.98
11395;BME280;5753;54.402;10.220;2023-03-16T00:10:05;101992.06;;;11.30;48.53
11395;BME280;5753;54.402;10.220;2023-03-16T00:12:31;101996.94;;;11.48;48.50
11395;BME280;5753;54.402;10.220;2023-03-16T00:15:00;101994.19;;;11.15;48.99
11395;BME280;5753;54.402;10.220;2023-03-16T00:17:27;101989.44;;;11.29;48.94
11395;BME280;5753;54.402;10.220;2023-03-16T00:19:54;101992.63;;;10.93;49.32
11395;BME280;5753;54.402;10.220;2023-03-16T00:22:27;101991.41;;;11.09;49.14
11395;BME280;5753;54.402;10.220;2023-03-16T00:24:54;101982.97;;;11.15;48.64
11395;BME280;5753;54.402;10.220;2023-03-16T00:27:21;101987.97;;;11.35;48.21
11395;BME280;5753;54.402;10.220;2023-03-16T00:29:49;101985.22;;;11.04;49.09
11395;BME280;5753;54.402;10.220;2023-03-16T00:32:22;101990.38;;;10.79;49.73
11395;BME280;5753;54.402;10.220;2023-03-16T00:34:48;101992.78;;;10.98;48.89
11395;BME280;5753;54.402;10.220;2023-03-16T00:37:17;101995.25;;;11.22;48.46
11395;BME280;5753;54.402;10.220;2023-03-16T00:39:44;101986.84;;;10.26;50.62
11395;BME280;5753;54.402;10.220;2023-03-16T00:42:13;101988.44;;;10.71;49.64
11395;BME280;5753;54.402;10.220;2023-03-16T00:44:40;101993.56;;;9.98;51.57
11395;BME280;5753;54.402;10.220;2023-03-16T00:47:10;101990.38;;;9.16;53.06
11395;BME280;5753;54.402;10.220;2023-03-16T00:49:40;102001.00;;;9.68;52.43
11395;BME280;5753;54.402;10.220;2023-03-16T00:52:08;101998.06;;;9.82;52.16
11395;BME280;5753;54.402;10.220;2023-03-16T00:54:43;101996.84;;;9.94;51.95
11395;BME280;5753;54.402;10.220;2023-03-16T00:57:11;101994.41;;;10.70;49.91
11395;BME280;5753;54.402;10.220;2023-03-16T00:59:39;102002.59;;;10.11;51.21
11395;BME280;5753;54.402;10.220;2023-03-16T01:02:07;102002.16;;;11.23;48.60
11395;BME280;5753;54.402;10.220;2023-03-16T01:04:33;102003.97;;;10.48;50.11
11395;BME280;5753;54.402;10.220;2023-03-16T01:07:05;101994.91;;;11.11;48.65
11395;BME280;5753;54.402;10.220;2023-03-16T01:09:33;102009.13;;;11.25;48.04
11395;BME280;5753;54.402;10.220;2023-03-16T01:12:07;102008.53;;;11.07;48.33
11395;BME280;5753;54.402;10.220;2023-03-16T01:14:34;102002.34;;;10.77;48.49
11395;BME280;5753;54.402;10.220;2023-03-16T01:17:01;102001.63;;;11.06;48.06
11395;BME280;5753;54.402;10.220;2023-03-16T01:19:28;101995.16;;;11.19;47.39
11395;BME280;5753;54.402;10.220;2023-03-16T01:21:55;102002.47;;;10.54;48.53
11395;BME280;5753;54.402;10.220;2023-03-16T01:24:21;102001.97;;;10.90;48.12
11395;BME280;5753;54.402;10.220;2023-03-16T01:26:49;102003.66;;;11.16;47.92
11395;BME280;5753;54.402;10.220;2023-03-16T01:29:15;101998.22;;;11.34;46.95
11395;BME280;5753;54.402;10.220;2023-03-16T01:31:41;101997.94;;;11.25;46.77
11395;BME280;5753;54.402;10.220;2023-03-16T01:34:07;101996.19;;;10.97;47.63
11395;BME280;5753;54.402;10.220;2023-03-16T01:36:33;101992.56;;;10.92;47.92
11395;BME280;5753;54.402;10.220;2023-03-16T01:39:00;101985.50;;;11.13;47.43
11395;BME280;5753;54.402;10.220;2023-03-16T01:41:26;101988.09;;;11.13;47.08
11395;BME280;5753;54.402;10.220;2023-03-16T01:43:52;101987.56;;;10.71;48.14
11395;BME280;5753;54.402;10.220;2023-03-16T01:46:27;101984.34;;;11.30;46.52
11395;BME280;5753;54.402;10.220;2023-03-16T01:54:14;101988.66;;;11.31;46.69
11395;BME280;5753;54.402;10.220;2023-03-16T01:56:54;101987.28;;;11.14;46.66
11395;BME280;5753;54.402;10.220;2023-03-16T01:59:25;101982.94;;;11.13;46.04
11395;BME280;5753;54.402;10.220;2023-03-16T02:01:52;101985.97;;;11.00;46.79
11395;BME280;5753;54.402;10.220;2023-03-16T02:07:11;101980.91;;;11.03;46.37
11395;BME280;5753;54.402;10.220;2023-03-16T02:09:40;101983.72;;;10.85;46.80
11395;BME280;5753;54.402;10.220;2023-03-16T02:12:09;101977.50;;;11.04;46.24
11395;BME280;5753;54.402;10.220;2023-03-16T02:14:43;101986.06;;;10.52;47.87
11395;BME280;5753;54.402;10.220;2023-03-16T02:17:11;101976.28;;;10.20;48.46
11395;BME280;5753;54.402;10.220;2023-03-16T02:22:45;101982.78;;;10.56;47.54
11395;BME280;5753;54.402;10.220;2023-03-16T02:25:14;101986.94;;;10.29;48.46
11395;BME280;5753;54.402;10.220;2023-03-16T02:30:25;101976.94;;;10.62;46.84
11395;BME280;5753;54.402;10.220;2023-03-16T02:32:52;101976.59;;;10.27;47.83
11395;BME280;5753;54.402;10.220;2023-03-16T02:35:20;101986.63;;;10.44;47.17
11395;BME280;5753;54.402;10.220;2023-03-16T02:37:46;101988.81;;;10.33;47.88
11395;BME280;5753;54.402;10.220;2023-03-16T02:40:19;101989.34;;;10.00;48.63
11395;BME280;5753;54.402;10.220;2023-03-16T02:45:26;101978.28;;;10.27;47.91
11395;BME280;5753;54.402;10.220;2023-03-16T02:47:54;101978.84;;;10.42;47.73
11395;BME280;5753;54.402;10.220;2023-03-16T02:50:23;101978.41;;;10.30;47.74
11395;BME280;5753;54.402;10.220;2023-03-16T02:52:49;101980.41;;;10.15;48.27
11395;BME280;5753;54.402;10.220;2023-03-16T02:55:15;101984.53;;;10.33;47.72
11395;BME280;5753;54.402;10.220;2023-03-16T02:57:41;101976.91;;;10.36;48.07
11395;BME280;5753;54.402;10.220;2023-03-16T03:00:08;101987.56;;;10.46;47.69
11395;BME280;5753;54.402;10.220;2023-03-16T03:02:39;101987.06;;;10.56;47.50
11395;BME280;5753;54.402;10.220;2023-03-16T03:05:06;101991.44;;;10.58;47.54
11395;BME280;5753;54.402;10.220;2023-03-16T03:07:32;101984.47;;;10.81;47.00
11395;BME280;5753;54.402;10.220;2023-03-16T03:09:58;101991.19;;;9.15;50.55
11395;BME280;5753;54.402;10.220;2023-03-16T03:12:25;101986.13;;;10.30;48.76
11395;BME280;5753;54.402;10.220;2023-03-16T03:14:51;101988.19;;;9.70;49.99
11395;BME280;5753;54.402;10.220;2023-03-16T03:17:17;101995.94;;;9.48;51.07
11395;BME280;5753;54.402;10.220;2023-03-16T03:19:43;102000.84;;;9.64;50.49
11395;BME280;5753;54.402;10.220;2023-03-16T03:22:09;101991.78;;;9.51;51.08
11395;BME280;5753;54.402;10.220;2023-03-16T03:24:36;102000.97;;;8.61;52.46
11395;BME280;5753;54.402;10.220;2023-03-16T03:27:02;101985.44;;;9.00;51.87
11395;BME280;5753;54.402;10.220;2023-03-16T03:29:31;101987.50;;;9.52;50.99
11395;BME280;5753;54.402;10.220;2023-03-16T03:32:00;101976.25;;;9.27;50.59
11395;BME280;5753;54.402;10.220;2023-03-16T03:34:27;101972.19;;;9.78;50.07
11395;BME280;5753;54.402;10.220;2023-03-16T03:36:54;101973.06;;;9.55;50.76
11395;BME280;5753;54.402;10.220;2023-03-16T03:39:20;101981.38;;;9.27;50.93
11395;BME280;5753;54.402;10.220;2023-03-16T03:41:46;101986.16;;;8.76;52.34
11395;BME280;5753;54.402;10.220;2023-03-16T03:44:13;101994.19;;;8.25;53.30
11395;BME280;5753;54.402;10.220;2023-03-16T03:46:39;101974.88;;;9.58;51.17
11395;BME280;5753;54.402;10.220;2023-03-16T03:49:05;101987.97;;;10.10;49.35
11395;BME280;5753;54.402;10.220;2023-03-16T03:51:32;101997.75;;;9.50;51.17
11395;BME280;5753;54.402;10.220;2023-03-16T03:53:59;101999.84;;;8.75;52.58
11395;BME280;5753;54.402;10.220;2023-03-16T03:56:26;102001.53;;;8.75;53.34
11395;BME280;5753;54.402;10.220;2023-03-16T03:58:52;101996.38;;;8.96;53.88
11395;BME280;5753;54.402;10.220;2023-03-16T04:01:18;101998.16;;;9.40;52.60
11395;BME280;5753;54.402;10.220;2023-03-16T04:03:44;101991.69;;;9.72;51.93
11395;BME280;5753;54.402;10.220;2023-03-16T04:06:10;102004.13;;;9.17;52.83
11395;BME280;5753;54.402;10.220;2023-03-16T04:08:37;101992.66;;;9.08;53.85
11395;BME280;5753;54.402;10.220;2023-03-16T04:11:03;101989.38;;;9.56;52.28
11395;BME280;5753;54.402;10.220;2023-03-16T04:13:29;101989.88;;;10.16;51.04
11395;BME280;5753;54.402;10.220;2023-03-16T04:16:00;101990.47;;;10.31;50.69
11395;BME280;5753;54.402;10.220;2023-03-16T04:18:29;101988.75;;;10.81;49.40
11395;BME280;5753;54.402;10.220;2023-03-16T04:21:04;101999.94;;;10.56;49.69
11395;BME280;5753;54.402;10.220;2023-03-16T04:23:31;101998.91;;;11.01;48.43
11395;BME280;5753;54.402;10.220;2023-03-16T04:25:58;102004.38;;;10.85;48.05
11395;BME280;5753;54.402;10.220;2023-03-16T04:28:25;101993.91;;;10.81;48.18
11395;BME280;5753;54.402;10.220;2023-03-16T04:30:52;102002.72;;;10.14;49.37
11395;BME280;5753;54.402;10.220;2023-03-16T04:33:21;102003.06;;;9.55;51.27
11395;BME280;5753;54.402;10.220;2023-03-16T04:35:48;101998.66;;;9.74;51.20
11395;BME280;5753;54.402;10.220;2023-03-16T04:38:14;102007.63;;;8.98;53.49
11395;BME280;5753;54.402;10.220;2023-03-16T04:40:41;102005.63;;;9.11;52.29
11395;BME280;5753;54.402;10.220;2023-03-16T04:43:07;101996.13;;;9.98;50.78
11395;BME280;5753;54.402;10.220;2023-03-16T04:45:33;101991.63;;;10.64;48.89
11395;BME280;5753;54.402;10.220;2023-03-16T04:47:59;102004.09;;;10.04;50.12
11395;BME280;5753;54.402;10.220;2023-03-16T04:50:25;102001.75;;;10.34;49.39
11395;BME280;5753;54.402;10.220;2023-03-16T04:52:51;101986.22;;;9.87;50.35
11395;BME280;5753;54.402;10.220;2023-03-16T04:55:18;101985.34;;;10.08;50.09
11395;BME280;5753;54.402;10.220;2023-03-16T04:57:44;101986.28;;;10.10;49.85
11395;BME280;5753;54.402;10.220;2023-03-16T05:00:11;101990.09;;;10.20;49.56
11395;BME280;5753;54.402;10.220;2023-03-16T05:02:46;101989.38;;;10.24;49.29
11395;BME280;5753;54.402;10.220;2023-03-16T05:05:13;101991.44;;;9.88;50.12
11395;BME280;5753;54.402;10.220;2023-03-16T05:07:40;101994.72;;;10.30;48.94
11395;BME280;5753;54.402;10.220;2023-03-16T05:10:09;101996.13;;;9.98;49.91
11395;BME280;5753;54.402;10.220;2023-03-16T05:12:36;101990.66;;;10.13;49.56
11395;BME280;5753;54.402;10.220;2023-03-16T05:15:02;101991.28;;;10.30;49.39
11395;BME280;5753;54.402;10.220;2023-03-16T05:17:29;101990.25;;;10.49;48.88
11395;BME280;5753;54.402;10.220;2023-03-16T05:19:55;102001.75;;;10.58;48.62
11395;BME280;5753;54.402;10.220;2023-03-16T05:22:21;102003.06;;;9.55;50.92
11395;BME280;5753;54.402;10.220;2023-03-16T05:24:47;101998.72;;;9.98;50.20
11395;BME280;5753;54.402;10.220;2023-03-16T05:27:13;101997.88;;;10.22;49.74
11395;BME280;5753;54.402;10.220;2023-03-16T05:29:40;101999.84;;;9.60;51.48
11395;BME280;5753;54.402;10.220;2023-03-16T05:32:11;101994.63;;;10.51;48.95
11395;BME280;5753;54.402;10.220;2023-03-16T05:34:37;102003.75;;;10.67;48.72
11395;BME280;5753;54.402;10.220;2023-03-16T05:37:04;102005.72;;;10.49;49.34
11395;BME280;5753;54.402;10.220;2023-03-16T05:39:31;102023.09;;;10.08;50.09
11395;BME280;5753;54.402;10.220;2023-03-16T05:41:57;102018.34;;;10.41;49.58
11395;BME280;5753;54.402;10.220;2023-03-16T05:44:24;102025.53;;;11.00;48.35
11395;BME280;5753;54.402;10.220;2023-03-16T05:46:50;102030.00;;;11.06;48.13
11395;BME280;5753;54.402;10.220;2023-03-16T05:49:17;102030.06;;;10.57;48.55
11395;BME280;5753;54.402;10.220;2023-03-16T05:51:43;102029.00;;;11.01;48.33
11395;BME280;5753;54.402;10.220;2023-03-16T05:54:09;102033.59;;;10.60;48.56
11395;BME280;5753;54.402;10.220;2023-03-16T05:56:35;102032.56;;;10.55;49.31
11395;BME280;5753;54.402;10.220;2023-03-16T05:59:01;102031.75;;;10.82;48.60
11395;BME280;5753;54.402;10.220;2023-03-16T06:01:28;102026.66;;;11.09;48.00
11395;BME280;5753;54.402;10.220;2023-03-16T06:03:54;102017.69;;;10.97;48.80
11395;BME280;5753;54.402;10.220;2023-03-16T06:06:21;102021.84;;;11.19;48.21
11395;BME280;5753;54.402;10.220;2023-03-16T06:08:48;102018.91;;;10.83;49.16
11395;BME280;5753;54.402;10.220;2023-03-16T06:11:14;102019.00;;;11.12;48.88
11395;BME280;5753;54.402;10.220;2023-03-16T06:13:41;102017.00;;;11.30;47.99
11395;BME280;5753;54.402;10.220;2023-03-16T06:16:07;102017.94;;;11.59;47.67
11395;BME280;5753;54.402;10.220;2023-03-16T06:18:36;102024.41;;;11.19;48.52
11395;BME280;5753;54.402;10.220;2023-03-16T06:21:02;102012.59;;;10.99;49.36
11395;BME280;5753;54.402;10.220;2023-03-16T06:23:29;102011.56;;;11.76;48.17
11395;BME280;5753;54.402;10.220;2023-03-16T06:25:55;102018.31;;;12.00;46.84
11395;BME280;5753;54.402;10.220;2023-03-16T06:28:22;102024.31;;;12.28;46.68
11395;BME280;5753;54.402;10.220;2023-03-16T06:30:48;102028.03;;;11.51;48.58
11395;BME280;5753;54.402;10.220;2023-03-16T06:33:17;102021.31;;;11.83;47.79
11395;BME280;5753;54.402;10.220;2023-03-16T06:35:44;102018.72;;;11.83;47.69
11395;BME280;5753;54.402;10.220;2023-03-16T06:38:14;102012.91;;;11.90;48.03
11395;BME280;5753;54.402;10.220;2023-03-16T06:40:40;102004.09;;;12.45;46.80
11395;BME280;5753;54.402;10.220;2023-03-16T06:43:06;102001.94;;;11.99;47.15
11395;BME280;5753;54.402;10.220;2023-03-16T06:45:33;102006.38;;;12.33;46.75
11395;BME280;5753;54.402;10.220;2023-03-16T06:47:59;102009.88;;;12.05;47.03
11395;BME280;5753;54.402;10.220;2023-03-16T06:50:26;102017.44;;;12.60;46.42
11395;BME280;5753;54.402;10.220;2023-03-16T06:52:52;102016.91;;;12.11;47.30
11395;BME280;5753;54.402;10.220;2023-03-16T06:55:18;102025.38;;;12.68;46.20
11395;BME280;5753;54.402;10.220;2023-03-16T06:57:44;102022.03;;;12.72;46.09
11395;BME280;5753;54.402;10.220;2023-03-16T07:00:13;102027.88;;;11.75;47.28
11395;BME280;5753;54.402;10.220;2023-03-16T07:02:40;102021.06;;;12.67;45.78
11395;BME280;5753;54.402;10.220;2023-03-16T07:05:09;102029.72;;;12.36;46.37
11395;BME280;5753;54.402;10.220;2023-03-16T07:07:40;102024.78;;;12.45;46.50
11395;BME280;5753;54.402;10.220;2023-03-16T07:10:09;102028.56;;;12.26;46.33
11395;BME280;5753;54.402;10.220;2023-03-16T07:12:36;102035.78;;;12.70;45.68
11395;BME280;5753;54.402;10.220;2023-03-16T07:15:02;102032.94;;;12.29;46.90
11395;BME280;5753;54.402;10.220;2023-03-16T07:17:29;102033.06;;;12.32;46.25
11395;BME280;5753;54.402;10.220;2023-03-16T07:19:55;102031.00;;;12.52;45.73
11395;BME280;5753;54.402;10.220;2023-03-16T07:22:21;102030.75;;;12.76;45.30
11395;BME280;5753;54.402;10.220;2023-03-16T07:24:47;102028.25;;;12.77;45.38
11395;BME280;5753;54.402;10.220;2023-03-16T07:27:21;102033.25;;;12.73;45.10
11395;BME280;5753;54.402;10.220;2023-03-16T07:29:48;102037.19;;;12.90;45.25
11395;BME280;5753;54.402;10.220;2023-03-16T07:32:15;102038.88;;;12.56;45.06
11395;BME280;5753;54.402;10.220;2023-03-16T07:34:41;102042.53;;;12.65;44.92
11395;BME280;5753;54.402;10.220;2023-03-16T07:37:08;102041.97;;;12.43;45.25
11395;BME280;5753;54.402;10.220;2023-03-16T07:39:35;102038.41;;;12.71;45.26
11395;BME280;5753;54.402;10.220;2023-03-16T07:42:02;102039.59;;;13.53;43.77
11395;BME280;5753;54.402;10.220;2023-03-16T07:44:28;102050.25;;;13.65;43.55
11395;BME280;5753;54.402;10.220;2023-03-16T07:46:54;102038.13;;;13.64;42.84
11395;BME280;5753;54.402;10.220;2023-03-16T07:49:21;102037.72;;;13.11;43.70
11395;BME280;5753;54.402;10.220;2023-03-16T07:51:48;102034.63;;;13.25;43.54
11395;BME280;5753;54.402;10.220;2023-03-16T07:54:14;102035.00;;;13.77;42.36
11395;BME280;5753;54.402;10.220;2023-03-16T07:56:40;102036.47;;;14.07;42.36
11395;BME280;5753;54.402;10.220;2023-03-16T07:59:07;102037.94;;;13.55;42.35
11395;BME280;5753;54.402;10.220;2023-03-16T08:01:33;102044.16;;;13.63;41.92
11395;BME280;5753;54.402;10.220;2023-03-16T08:04:00;102036.53;;;14.10;41.47
11395;BME280;5753;54.402;10.220;2023-03-16T08:06:27;102025.00;;;13.96;41.73
11395;BME280;5753;54.402;10.220;2023-03-16T08:08:56;102027.75;;;14.92;40.07
11395;BME280;5753;54.402;10.220;2023-03-16T08:11:22;102024.88;;;14.75;40.19
11395;BME280;5753;54.402;10.220;2023-03-16T08:13:52;102026.13;;;14.51;40.24
11395;BME280;5753;54.402;10.220;2023-03-16T08:16:25;102034.66;;;14.43;40.47
11395;BME280;5753;54.402;10.220;2023-03-16T08:18:54;102029.78;;;14.62;39.87
11395;BME280;5753;54.402;10.220;2023-03-16T08:21:21;102022.63;;;14.95;39.08
11395;BME280;5753;54.402;10.220;2023-03-16T08:23:47;102026.75;;;14.84;39.78
11395;BME280;5753;54.402;10.220;2023-03-16T08:26:17;102029.56;;;15.52;38.54
11395;BME280;5753;54.402;10.220;2023-03-16T08:28:45;102027.69;;;15.42;37.83
11395;BME280;5753;54.402;10.220;2023-03-16T08:31:12;102033.81;;;14.93;38.68
11395;BME280;5753;54.402;10.220;2023-03-16T08:33:40;102023.78;;;13.78;39.61
11395;BME280;5753;54.402;10.220;2023-03-16T08:36:09;102041.91;;;15.11;38.54
11395;BME280;5753;54.402;10.220;2023-03-16T08:38:37;102033.50;;;14.31;38.51
11395;BME280;5753;54.402;10.220;2023-03-16T08:41:05;102039.03;;;14.94;37.54
11395;BME280;5753;54.402;10.220;2023-03-16T08:43:31;102030.31;;;14.02;38.98
11395;BME280;5753;54.402;10.220;2023-03-16T08:45:58;102031.06;;;13.57;39.52
11395;BME280;5753;54.402;10.220;2023-03-16T08:48:25;102031.91;;;14.81;37.31
11395;BME280;5753;54.402;10.220;2023-03-16T08:50:51;102023.25;;;14.82;37.10
11395;BME280;5753;54.402;10.220;2023-03-16T08:53:18;102030.44;;;14.97;37.09
11395;BME280;5753;54.402;10.220;2023-03-16T08:55:46;102030.09;;;14.77;37.20
11395;BME280;5753;54.402;10.220;2023-03-16T08:58:13;102030.03;;;15.24;37.08
11395;BME280;5753;54.402;10.220;2023-03-16T09:00:40;102028.94;;;15.65;36.30
11395;BME280;5753;54.402;10.220;2023-03-16T09:03:07;102032.38;;;16.29;35.10
11395;BME280;5753;54.402;10.220;2023-03-16T09:05:35;102030.94;;;16.56;34.92
11395;BME280;5753;54.402;10.220;2023-03-16T09:08:01;102032.38;;;16.29;35.94
11395;BME280;5753;54.402;10.220;2023-03-16T09:10:28;102028.34;;;15.85;35.80
11395;BME280;5753;54.402;10.220;2023-03-16T09:12:57;102018.13;;;16.00;34.81
11395;BME280;5753;54.402;10.220;2023-03-16T09:15:23;102014.25;;;16.38;34.20
11395;BME280;5753;54.402;10.220;2023-03-16T09:17:49;102022.09;;;16.42;35.12
11395;BME280;5753;54.402;10.220;2023-03-16T09:20:16;102021.13;;;16.32;34.34
11395;BME280;5753;54.402;10.220;2023-03-16T09:22:43;102016.59;;;14.98;35.38
11395;BME280;5753;54.402;10.220;2023-03-16T09:25:10;102010.06;;;14.68;35.75
11395;BME280;5753;54.402;10.220;2023-03-16T09:27:37;102014.28;;;14.65;35.53
11395;BME280;5753;54.402;10.220;2023-03-16T09:30:07;102016.53;;;14.93;37.23
11395;BME280;5753;54.402;10.220;2023-03-16T09:32:34;102017.75;;;14.20;36.97
11395;BME280;5753;54.402;10.220;2023-03-16T09:35:02;102017.06;;;15.84;34.78
11395;BME280;5753;54.402;10.220;2023-03-16T09:37:31;102017.88;;;15.79;33.70
11395;BME280;5753;54.402;10.220;2023-03-16T09:39:57;102020.00;;;13.64;35.26
11395;BME280;5753;54.402;10.220;2023-03-16T09:42:34;102010.25;;;14.80;35.01
11395;BME280;5753;54.402;10.220;2023-03-16T09:45:22;102012.09;;;15.40;33.87
11395;BME280;5753;54.402;10.220;2023-03-16T09:47:56;102013.47;;;14.22;34.75
11395;BME280;5753;54.402;10.220;2023-03-16T09:50:33;102021.34;;;14.72;34.23
11395;BME280;5753;54.402;10.220;2023-03-16T09:53:24;102017.44;;;14.95;33.51
11395;BME280;5753;54.402;10.220;2023-03-16T09:56:03;102006.75;;;14.33;34.27
11395;BME280;5753;54.402;10.220;2023-03-16T09:58:30;101997.56;;;14.97;34.58
11395;BME280;5753;54.402;10.220;2023-03-16T10:01:20;102002.97;;;15.12;34.18
11395;BME280;5753;54.402;10.220;2023-03-16T10:06:25;102003.50;;;15.46;33.27
11395;BME280;5753;54.402;10.220;2023-03-16T10:11:45;102003.31;;;16.67;32.75
11395;BME280;5753;54.402;10.220;2023-03-16T10:14:40;101994.09;;;14.48;34.05
11395;BME280;5753;54.402;10.220;2023-03-16T10:22:21;101999.03;;;15.36;33.25
11395;BME280;5753;54.402;10.220;2023-03-16T10:24:54;101983.47;;;16.83;32.71
11395;BME280;5753;54.402;10.220;2023-03-16T10:27:28;101987.03;;;16.92;31.40
11395;BME280;5753;54.402;10.220;2023-03-16T10:29:55;101980.47;;;15.69;32.52
11395;BME280;5753;54.402;10.220;2023-03-16T10:32:22;101986.22;;;16.12;31.43
11395;BME280;5753;54.402;10.220;2023-03-16T10:37:51;101985.84;;;16.60;32.00
11395;BME280;5753;54.402;10.220;2023-03-16T10:40:17;101978.25;;;16.01;31.02
11395;BME280;5753;54.402;10.220;2023-03-16T10:42:46;101984.56;;;16.20;32.15
11395;BME280;5753;54.402;10.220;2023-03-16T10:45:33;101971.28;;;16.79;31.53
11395;BME280;5753;54.402;10.220;2023-03-16T10:48:19;101983.66;;;17.04;30.83
11395;BME280;5753;54.402;10.220;2023-03-16T10:50:54;101974.94;;;14.90;31.96
11395;BME280;5753;54.402;10.220;2023-03-16T10:53:29;101978.22;;;15.96;32.15
11395;BME280;5753;54.402;10.220;2023-03-16T10:55:59;101969.94;;;16.32;30.88
11395;BME280;5753;54.402;10.220;2023-03-16T10:58:31;101968.81;;;16.95;30.80
11395;BME280;5753;54.402;10.220;2023-03-16T11:00:59;101958.78;;;17.50;29.86
11395;BME280;5753;54.402;10.220;2023-03-16T11:03:30;101949.66;;;16.87;30.74
11395;BME280;5753;54.402;10.220;2023-03-16T11:06:02;101959.13;;;16.78;32.23
11395;BME280;5753;54.402;10.220;2023-03-16T11:08:37;101946.56;;;17.48;30.93
11395;BME280;5753;54.402;10.220;2023-03-16T11:13:57;101946.16;;;16.82;32.05
11395;BME280;5753;54.402;10.220;2023-03-16T11:16:29;101932.84;;;17.81;29.70
11395;BME280;5753;54.402;10.220;2023-03-16T11:21:47;101932.50;;;15.47;30.80
11395;BME280;5753;54.402;10.220;2023-03-16T11:32:47;101914.09;;;16.00;31.11
11395;BME280;5753;54.402;10.220;2023-03-16T11:35:18;101915.03;;;16.05;30.33
11395;BME280;5753;54.402;10.220;2023-03-16T12:05:54;101876.41;;;18.04;27.46
11395;BME280;5753;54.402;10.220;2023-03-16T12:14:15;101868.72;;;16.58;26.07
11395;BME280;5753;54.402;10.220;2023-03-16T12:16:55;101868.72;;;16.58;27.05
11395;BME280;5753;54.402;10.220;2023-03-16T12:19:53;101868.44;;;17.61;25.35
11395;BME280;5753;54.402;10.220;2023-03-16T12:22:41;101865.59;;;17.05;25.40
11395;BME280;5753;54.402;10.220;2023-03-16T12:25:19;101846.38;;;15.88;25.46
11395;BME280;5753;54.402;10.220;2023-03-16T12:27:49;101843.72;;;15.82;26.07
11395;BME280;5753;54.402;10.220;2023-03-16T12:33:21;101843.44;;;14.92;26.57
11395;BME280;5753;54.402;10.220;2023-03-16T12:44:16;101834.38;;;17.14;24.99
11395;BME280;5753;54.402;10.220;2023-03-16T12:47:00;101824.19;;;17.72;24.12
11395;BME280;5753;54.402;10.220;2023-03-16T12:49:32;101827.53;;;17.50;24.72
11395;BME280;5753;54.402;10.220;2023-03-16T12:52:11;101817.25;;;17.82;24.64
11395;BME280;5753;54.402;10.220;2023-03-16T12:54:52;101804.19;;;17.82;24.28
11395;BME280;5753;54.402;10.220;2023-03-16T12:57:22;101800.59;;;17.39;23.96
11395;BME280;5753;54.402;10.220;2023-03-16T12:59:55;101797.06;;;19.24;23.46
11395;BME280;5753;54.402;10.220;2023-03-16T13:02:31;101783.38;;;18.02;22.44
11395;BME280;5753;54.402;10.220;2023-03-16T13:05:07;101785.03;;;17.60;22.33
11395;BME280;5753;54.402;10.220;2023-03-16T13:07:34;101782.63;;;15.44;23.19
11395;BME280;5753;54.402;10.220;2023-03-16T13:10:07;101778.06;;;16.07;22.01
11395;BME280;5753;54.402;10.220;2023-03-16T13:12:36;101776.25;;;17.43;21.96
11395;BME280;5753;54.402;10.220;2023-03-16T13:20:54;101772.06;;;18.04;21.18
11395;BME280;5753;54.402;10.220;2023-03-16T13:28:54;101765.47;;;16.59;22.37
11395;BME280;5753;54.402;10.220;2023-03-16T13:31:36;101758.41;;;16.43;22.83
11395;BME280;5753;54.402;10.220;2023-03-16T13:34:07;101753.16;;;16.33;22.67
11395;BME280;5753;54.402;10.220;2023-03-16T13:36:37;101742.47;;;17.72;22.18
11395;BME280;5753;54.402;10.220;2023-03-16T13:39:12;101747.72;;;18.01;22.52
11395;BME280;5753;54.402;10.220;2023-03-16T13:41:40;101732.91;;;17.92;22.61
11395;BME280;5753;54.402;10.220;2023-03-16T13:44:13;101734.56;;;17.38;22.44
11395;BME280;5753;54.402;10.220;2023-03-16T13:46:40;101725.06;;;17.66;22.03
11395;BME280;5753;54.402;10.220;2023-03-16T13:49:06;101722.47;;;18.12;21.23
11395;BME280;5753;54.402;10.220;2023-03-16T13:51:35;101718.97;;;17.66;21.59
11395;BME280;5753;54.402;10.220;2023-03-16T13:54:22;101715.16;;;16.60;22.46
11395;BME280;5753;54.402;10.220;2023-03-16T13:57:00;101716.38;;;17.56;21.93
11395;BME280;5753;54.402;10.220;2023-03-16T13:59:28;101712.91;;;17.94;21.13
11395;BME280;5753;54.402;10.220;2023-03-16T14:01:59;101703.94;;;16.65;21.77
11395;BME280;5753;54.402;10.220;2023-03-16T14:04:31;101698.03;;;17.05;21.43
11395;BME280;5753;54.402;10.220;2023-03-16T14:06:59;101703.75;;;16.41;21.86
11395;BME280;5753;54.402;10.220;2023-03-16T14:09:29;101708.22;;;16.59;21.75
11395;BME280;5753;54.402;10.220;2023-03-16T14:11:57;101701.63;;;17.71;21.09
11395;BME280;5753;54.402;10.220;2023-03-16T14:14:29;101700.53;;;16.83;21.04
11395;BME280;5753;54.402;10.220;2023-03-16T14:17:11;101715.03;;;14.66;23.27
11395;BME280;5753;54.402;10.220;2023-03-16T14:19:59;101691.94;;;17.07;21.84
11395;BME280;5753;54.402;10.220;2023-03-16T14:22:44;101688.13;;;16.36;22.54
11395;BME280;5753;54.402;10.220;2023-03-16T14:25:24;101697.16;;;17.13;22.26
11395;BME280;5753;54.402;10.220;2023-03-16T14:28:01;101686.34;;;15.26;22.95
11395;BME280;5753;54.402;10.220;2023-03-16T14:30:31;101677.28;;;17.72;21.64
11395;BME280;5753;54.402;10.220;2023-03-16T14:35:37;101676.34;;;17.36;22.07
11395;BME280;5753;54.402;10.220;2023-03-16T14:38:37;101682.78;;;16.14;22.84
11395;BME280;5753;54.402;10.220;2023-03-16T14:41:21;101665.56;;;16.35;22.52
11395;BME280;5753;54.402;10.220;2023-03-16T14:43:56;101670.13;;;16.73;22.71